Time;durP1;ratioP1;P1;durP2;ratioP2;P2;SDS_P1;SDS_P2;PMS_P1;PMS_P2;Temp;Humidity;BMP_temperature;BMP_pressure;BME280_temperature;BME280_humidity;BME280_pressure;Samples;Min_cycle;Max_cycle;Signal;HPM_P1;HPM_P2
2023/10/25 00:02:04;;;;;;;5.65;4.53;;;;;;;9.12;100.00;99836.66;5039703;28;20025;-67
2023/10/25 00:04:29;;;;;;;9.68;4.60;;;;;;;9.12;100.00;99840.06;5037655;28;20041;-68
2023/10/25 00:06:54;;;;;;;5.25;3.88;;;;;;;9.14;100.00;99842.63;5052117;28;20098;-68
2023/10/25 00:09:20;;;;;;;6.85;4.43;;;;;;;9.18;100.00;99846.84;5056768;28;20052;-67
2023/10/25 00:11:45;;;;;;;6.97;4.30;;;;;;;9.22;100.00;99837.34;5057733;28;20041;-68
2023/10/25 00:14:11;;;;;;;6.97;4.30;;;;;;;9.24;100.00;99838.16;5056741;28;20776;-67
2023/10/25 00:16:36;;;;;;;6.80;3.83;;;;;;;9.26;100.00;99839.81;5057405;28;20032;-68
2023/10/25 00:19:02;;;;;;;8.30;4.07;;;;;;;9.32;100.00;99833.69;5058142;28;20064;-68
2023/10/25 00:21:27;;;;;;;7.97;4.38;;;;;;;9.34;100.00;99835.41;5056230;28;20041;-69
2023/10/25 00:23:52;;;;;;;9.30;6.05;;;;;;;9.36;100.00;99836.22;5050277;28;20057;-69
2023/10/25 00:26:17;;;;;;;8.20;6.45;;;;;;;9.38;100.00;99831.88;5038340;28;20043;-68
2023/10/25 00:28:43;;;;;;;10.93;6.38;;;;;;;9.41;100.00;99836.97;5021473;28;20490;-68
2023/10/25 00:31:08;;;;;;;11.00;5.90;;;;;;;9.43;100.00;99829.22;5039174;28;20157;-67
2023/10/25 00:33:33;;;;;;;8.27;5.40;;;;;;;9.45;100.00;99835.19;5034261;28;20547;-69
2023/10/25 00:35:59;;;;;;;10.07;4.85;;;;;;;9.45;100.00;99835.19;5036193;28;20037;-69
2023/10/25 00:38:24;;;;;;;8.70;4.00;;;;;;;9.46;100.00;99837.75;5033541;28;20115;-68
2023/10/25 00:40:50;;;;;;;5.90;4.20;;;;;;;9.46;100.00;99832.59;5047002;28;20155;-69
2023/10/25 00:43:18;;;;;;;5.90;3.53;;;;;;;9.47;100.00;99842.03;5062522;28;20761;-67
2023/10/25 00:46:08;;;;;;;6.97;3.70;;;;;;;9.46;100.00;99850.66;5056188;28;20439;-68
2023/10/25 00:48:36;;;;;;;9.50;4.45;;;;;;;9.46;100.00;99845.50;5059816;28;20040;-68
2023/10/25 00:51:03;;;;;;;7.47;3.75;;;;;;;9.47;100.00;99854.91;5057121;28;20075;-68
2023/10/25 00:53:31;;;;;;;9.75;4.20;;;;;;;9.47;100.00;99849.75;5059231;28;20048;-68
2023/10/25 00:55:58;;;;;;;7.80;4.10;;;;;;;9.49;100.00;99848.03;5043894;28;20032;-68
2023/10/25 00:58:24;;;;;;;6.80;4.68;;;;;;;9.49;100.00;99857.47;5035075;28;20256;-67
2023/10/25 01:00:52;;;;;;;9.48;4.90;;;;;;;9.49;100.00;99848.03;5049536;28;20037;-67
2023/10/25 01:03:18;;;;;;;8.60;4.95;;;;;;;9.50;100.00;99843.69;5047907;28;20037;-67
2023/10/25 01:05:43;;;;;;;8.07;4.75;;;;;;;9.48;100.00;99842.88;5036455;28;20118;-69
2023/10/25 01:08:09;;;;;;;5.38;3.92;;;;;;;9.48;100.00;99843.72;5039437;28;20109;-67
2023/10/25 01:10:35;;;;;;;8.93;5.10;;;;;;;9.48;100.00;99841.16;5038017;28;20842;-68
2023/10/25 01:13:01;;;;;;;7.60;5.00;;;;;;;9.48;100.00;99833.41;5052038;28;20075;-68
2023/10/25 01:15:27;;;;;;;8.88;4.57;;;;;;;9.48;100.00;99830.84;5059638;28;20036;-64
2023/10/25 01:17:52;;;;;;;8.48;4.95;;;;;;;9.47;100.00;99823.97;5054434;28;20083;-64
2023/10/25 01:20:19;;;;;;;6.13;4.60;;;;;;;9.47;100.00;99836.00;5043535;28;20028;-64
2023/10/25 01:22:46;;;;;;;9.18;4.70;;;;;;;9.44;100.00;99833.47;5039211;28;20032;-64
2023/10/25 01:25:12;;;;;;;6.18;4.20;;;;;;;9.43;100.00;99829.22;5033687;28;20087;-64
2023/10/25 01:27:37;;;;;;;5.47;3.88;;;;;;;9.40;100.00;99819.81;5045730;28;20029;-64
2023/10/25 01:30:02;;;;;;;8.85;4.35;;;;;;;9.37;100.00;99819.03;5039609;28;20052;-64
2023/10/25 01:32:28;;;;;;;5.75;4.13;;;;;;;9.35;100.00;99805.28;5036273;28;20049;-65
2023/10/25 01:34:53;;;;;;;6.75;4.45;;;;;;;9.34;100.00;99809.63;5057195;28;20023;-65
2023/10/25 01:37:18;;;;;;;8.10;4.68;;;;;;;9.31;100.00;99806.25;5056524;28;20175;-65
2023/10/25 01:39:44;;;;;;;8.13;4.15;;;;;;;9.28;100.00;99799.41;5036174;28;20037;-64
2023/10/25 01:42:09;;;;;;;6.78;4.22;;;;;;;9.25;100.00;99798.63;5050467;28;20064;-64
2023/10/25 01:44:35;;;;;;;6.35;4.20;;;;;;;9.21;100.00;99802.13;5047918;28;20041;-64
2023/10/25 01:47:00;;;;;;;16.88;6.13;;;;;;;9.19;100.00;99791.00;5053106;28;20031;-64
2023/10/25 01:49:25;;;;;;;5.20;4.10;;;;;;;9.17;100.00;99798.72;5056778;28;20032;-63
2023/10/25 01:51:51;;;;;;;10.00;4.15;;;;;;;9.13;100.00;99794.53;5050977;28;20098;-63
2023/10/25 01:54:16;;;;;;;7.30;4.57;;;;;;;9.09;100.00;99792.88;5055478;28;20118;-64
2023/10/25 01:56:41;;;;;;;9.82;5.15;;;;;;;9.07;100.00;99794.63;5052618;28;20124;-64
2023/10/25 01:59:06;;;;;;;8.85;5.10;;;;;;;9.05;100.00;99784.34;5054079;28;20056;-64
2023/10/25 02:01:32;;;;;;;6.78;4.50;;;;;;;9.03;100.00;99783.53;5055080;28;20103;-64
2023/10/25 02:03:57;;;;;;;7.25;4.22;;;;;;;9.04;100.00;99780.09;5061378;28;20139;-64
2023/10/25 02:06:23;;;;;;;7.47;4.63;;;;;;;9.04;100.00;99776.66;5053040;28;20039;-65
2023/10/25 02:08:48;;;;;;;9.23;4.90;;;;;;;9.02;100.00;99779.25;5060029;28;20908;-63
2023/10/25 02:11:15;;;;;;;8.85;5.00;;;;;;;9.01;100.00;99779.28;5061127;28;20025;-63
2023/10/25 02:13:41;;;;;;;10.35;4.57;;;;;;;8.99;100.00;99770.75;5061047;28;20111;-64
2023/10/25 02:16:14;;;;;;;10.57;5.13;;;;;;;9.00;100.00;99769.84;5061326;28;20036;-64
2023/10/25 02:18:39;;;;;;;8.07;5.40;;;;;;;9.00;100.00;99765.53;5061783;28;20078;-63
2023/10/25 02:21:05;;;;;;;9.63;5.25;;;;;;;9.03;100.00;99760.34;5064670;28;20044;-64
2023/10/25 02:23:30;;;;;;;8.98;4.40;;;;;;;9.00;100.00;99755.22;5061942;28;20616;-64
2023/10/25 02:25:55;;;;;;;9.80;4.78;;;;;;;8.98;100.00;99751.00;5061874;28;20534;-64
2023/10/25 02:28:21;;;;;;;12.02;5.30;;;;;;;8.96;100.00;99745.03;5064654;28;20849;-63
2023/10/25 02:30:46;;;;;;;7.70;4.95;;;;;;;8.95;100.00;99743.31;5061680;28;20376;-63
2023/10/25 02:33:12;;;;;;;9.70;5.05;;;;;;;8.95;100.00;99739.00;5053856;28;20127;-64
2023/10/25 02:35:37;;;;;;;11.90;5.50;;;;;;;8.96;100.00;99740.69;5062439;28;20759;-63
2023/10/25 02:38:02;;;;;;;7.72;4.90;;;;;;;8.98;100.00;99740.69;5063327;28;20028;-64
2023/10/25 02:40:28;;;;;;;8.32;4.85;;;;;;;8.96;100.00;99734.72;5061384;28;20037;-63
2023/10/25 02:42:54;;;;;;;8.02;4.60;;;;;;;8.91;100.00;99739.06;5062068;28;20430;-64
2023/10/25 02:45:19;;;;;;;7.28;4.97;;;;;;;8.89;100.00;99733.97;5063478;28;20075;-64
2023/10/25 02:47:44;;;;;;;10.70;5.20;;;;;;;8.89;100.00;99738.25;5062935;28;20677;-65
2023/10/25 02:50:10;;;;;;;9.32;4.72;;;;;;;8.86;100.00;99730.59;5064323;28;20627;-64
2023/10/25 02:52:35;;;;;;;8.85;5.68;;;;;;;8.86;100.00;99738.31;5069692;28;20046;-64
2023/10/25 02:55:00;;;;;;;9.50;5.93;;;;;;;8.84;100.00;99732.34;5067715;28;20044;-64
2023/10/25 02:57:26;;;;;;;10.02;5.53;;;;;;;8.86;100.00;99733.16;5067972;28;20128;-64
2023/10/25 02:59:51;;;;;;;10.25;5.07;;;;;;;8.83;100.00;99730.66;5070406;28;20114;-64
2023/10/25 03:02:17;;;;;;;8.63;5.63;;;;;;;8.82;100.00;99713.47;5063911;28;20040;-64
2023/10/25 03:04:43;;;;;;;11.27;5.75;;;;;;;8.82;100.00;99722.06;5061509;28;20025;-64
2023/10/25 03:07:08;;;;;;;9.93;5.82;;;;;;;8.78;100.00;99719.59;5070530;28;20035;-64
2023/10/25 03:09:33;;;;;;;9.02;5.82;;;;;;;8.77;100.00;99715.28;5065024;28;20028;-64
2023/10/25 03:11:59;;;;;;;8.80;5.40;;;;;;;8.74;100.00;99715.34;5066713;28;20048;-62
2023/10/25 03:14:24;;;;;;;8.70;5.75;;;;;;;8.71;100.00;99718.84;5058201;28;20063;-62
2023/10/25 03:16:51;;;;;;;8.43;5.88;;;;;;;8.64;100.00;99709.50;5057342;28;20047;-62
2023/10/25 03:19:16;;;;;;;10.95;5.85;;;;;;;8.63;100.00;99709.53;5039974;28;20552;-62
2023/10/25 03:21:42;;;;;;;11.52;5.70;;;;;;;8.59;100.00;99708.75;5058780;28;20044;-61
2023/10/25 03:24:07;;;;;;;14.57;6.63;;;;;;;8.56;100.00;99708.78;5060632;28;20044;-62
2023/10/25 03:26:33;;;;;;;12.68;5.80;;;;;;;8.56;100.00;99714.78;5061818;28;20032;-64
2023/10/25 03:28:59;;;;;;;12.93;6.53;;;;;;;8.54;100.00;99707.97;5060467;28;20033;-64
2023/10/25 03:31:24;;;;;;;9.68;5.93;;;;;;;8.53;100.00;99695.97;5052093;28;20057;-63
2023/10/25 03:33:49;;;;;;;8.85;5.70;;;;;;;8.52;100.00;99702.84;5062329;28;20143;-63
2023/10/25 03:36:15;;;;;;;10.07;6.68;;;;;;;8.51;100.00;99692.56;5064876;28;20513;-62
2023/10/25 03:38:40;;;;;;;7.78;5.53;;;;;;;8.47;100.00;99693.50;5056837;28;20033;-62
2023/10/25 03:41:07;;;;;;;11.07;6.25;;;;;;;8.47;100.00;99685.78;5067535;28;20433;-64
2023/10/25 03:43:34;;;;;;;9.00;5.57;;;;;;;8.42;100.00;99679.84;5059086;28;20091;-64
2023/10/25 03:46:03;;;;;;;8.48;5.65;;;;;;;8.39;100.00;99687.63;5057167;28;20045;-64
2023/10/25 03:48:29;;;;;;;9.25;5.72;;;;;;;8.34;100.00;99685.13;5064137;28;20590;-64
2023/10/25 03:50:54;;;;;;;13.80;5.90;;;;;;;8.33;100.00;99683.44;5057637;28;20044;-65
2023/10/25 03:53:19;;;;;;;11.35;6.18;;;;;;;8.36;100.00;99685.97;5063575;28;20566;-64
2023/10/25 03:55:55;;;;;;;10.65;6.20;;;;;;;8.34;100.00;99681.69;5065046;28;20614;-64
2023/10/25 03:58:24;;;;;;;9.65;6.70;;;;;;;8.35;100.00;99671.38;5059130;28;20042;-64
2023/10/25 04:01:16;;;;;;;11.48;7.07;;;;;;;8.34;100.00;99669.66;5055490;28;20036;-64
2023/10/25 04:03:41;;;;;;;12.23;6.38;;;;;;;8.39;100.00;99669.59;5061010;28;20058;-64
2023/10/25 04:06:08;;;;;;;13.23;8.65;;;;;;;8.43;100.00;99660.94;5064780;28;20338;-64
2023/10/25 04:08:33;;;;;;;14.27;8.75;;;;;;;8.43;100.00;99661.78;5061966;28;20040;-64
2023/10/25 04:10:59;;;;;;;14.25;7.75;;;;;;;8.44;100.00;99665.22;5069196;28;20079;-64
2023/10/25 04:13:25;;;;;;;14.10;8.80;;;;;;;8.46;100.00;99659.16;5056846;28;20060;-64
2023/10/25 04:15:55;;;;;;;12.18;8.43;;;;;;;8.51;100.00;99657.38;5061406;28;20056;-64
2023/10/25 04:18:22;;;;;;;13.90;8.18;;;;;;;8.50;100.00;99659.97;5065799;28;20046;-64
2023/10/25 04:20:47;;;;;;;12.82;8.18;;;;;;;8.51;100.00;99659.09;5063370;28;20036;-64
2023/10/25 04:23:13;;;;;;;16.08;8.50;;;;;;;8.55;100.00;99648.69;5060761;28;20406;-64
2023/10/25 04:25:38;;;;;;;16.33;8.10;;;;;;;8.56;100.00;99646.97;5057124;28;21226;-64
2023/10/25 04:28:03;;;;;;;14.43;7.88;;;;;;;8.58;100.00;99645.22;5058042;28;20040;-64
2023/10/25 04:30:29;;;;;;;12.85;7.93;;;;;;;8.59;100.00;99644.34;5041938;28;20044;-64
2023/10/25 04:32:54;;;;;;;15.73;8.10;;;;;;;8.62;100.00;99639.13;5062739;28;20047;-64
2023/10/25 04:35:19;;;;;;;12.63;8.18;;;;;;;8.65;100.00;99633.06;5060170;28;20029;-64
2023/10/25 04:37:44;;;;;;;14.43;8.55;;;;;;;8.66;100.00;99629.63;5066683;28;20028;-64
2023/10/25 04:40:10;;;;;;;21.95;7.88;;;;;;;8.69;100.00;99629.56;5060997;28;20073;-64
2023/10/25 04:42:36;;;;;;;17.48;7.85;;;;;;;8.71;100.00;99617.50;5058888;28;20040;-64
2023/10/25 04:45:01;;;;;;;12.35;7.45;;;;;;;8.72;100.00;99622.66;5043606;28;20043;-64
2023/10/25 04:47:26;;;;;;;17.30;7.70;;;;;;;8.77;100.00;99618.25;5058454;28;20089;-64
2023/10/25 04:49:52;;;;;;;12.02;7.13;;;;;;;8.77;100.00;99620.81;5055960;28;20547;-64
2023/10/25 04:52:19;;;;;;;13.98;7.18;;;;;;;8.77;100.00;99619.97;5069218;28;20102;-64
2023/10/25 04:54:44;;;;;;;14.07;7.05;;;;;;;8.78;100.00;99613.94;5058049;28;20040;-65
2023/10/25 04:57:09;;;;;;;14.25;7.60;;;;;;;8.79;100.00;99606.16;5066211;28;20124;-64
2023/10/25 04:59:34;;;;;;;10.40;6.75;;;;;;;8.80;100.00;99604.44;5057943;28;20032;-65
2023/10/25 05:02:00;;;;;;;12.73;7.10;;;;;;;8.83;100.00;99600.09;5063872;28;20032;-65
2023/10/25 05:04:25;;;;;;;12.52;6.47;;;;;;;8.79;100.00;99602.75;5042881;28;20087;-65
2023/10/25 05:06:51;;;;;;;12.73;6.88;;;;;;;8.83;100.00;99588.94;5066183;28;20534;-65
2023/10/25 05:09:17;;;;;;;11.88;6.78;;;;;;;8.78;100.00;99586.47;5060609;28;20033;-65
2023/10/25 05:11:49;;;;;;;10.55;6.35;;;;;;;8.78;100.00;99583.03;5062537;28;20091;-64
2023/10/25 05:14:15;;;;;;;11.60;6.15;;;;;;;8.78;100.00;99583.88;5061249;28;20048;-65
2023/10/25 05:16:40;;;;;;;16.75;7.65;;;;;;;8.76;100.00;99580.47;5058010;28;20028;-63
2023/10/25 05:19:06;;;;;;;12.35;6.13;;;;;;;8.78;100.00;99580.47;5052727;28;20056;-61
2023/10/25 05:21:35;;;;;;;9.90;5.90;;;;;;;8.75;100.00;99573.63;5050128;28;20043;-62
2023/10/25 05:24:03;;;;;;;9.02;5.70;;;;;;;8.72;100.00;99571.13;5050707;28;20434;-62
2023/10/25 05:26:28;;;;;;;11.93;7.63;;;;;;;8.72;100.00;99567.69;5056266;28;20040;-63
2023/10/25 05:28:54;;;;;;;10.18;6.35;;;;;;;8.71;100.00;99568.56;5056987;28;20035;-61
2023/10/25 05:31:21;;;;;;;27.23;15.55;;;;;;;8.76;100.00;99556.44;5052802;28;20041;-62
2023/10/25 05:33:46;;;;;;;18.95;11.55;;;;;;;8.77;100.00;99555.56;5038094;28;20667;-62
2023/10/25 05:36:13;;;;;;;16.35;10.45;;;;;;;8.78;100.00;99552.13;5061115;28;20033;-62
2023/10/25 05:38:38;;;;;;;37.42;20.35;;;;;;;8.78;100.00;99537.50;5056598;28;20071;-63
2023/10/25 05:41:05;;;;;;;33.70;17.02;;;;;;;8.81;100.00;99537.41;5063010;28;20463;-62
2023/10/25 05:43:36;;;;;;;45.63;21.85;;;;;;;8.81;100.00;99537.41;5059374;28;20594;-62
2023/10/25 05:46:01;;;;;;;67.40;32.22;;;;;;;8.79;100.00;99541.75;5050907;28;20040;-61
2023/10/25 05:48:27;;;;;;;53.28;24.40;;;;;;;8.80;100.00;99546.03;5059207;28;20114;-62
2023/10/25 05:50:53;;;;;;;52.58;25.92;;;;;;;8.79;100.00;99539.19;5062400;28;20072;-62
2023/10/25 05:53:19;;;;;;;63.47;29.15;;;;;;;8.82;100.00;99543.41;5056436;28;20071;-62
2023/10/25 05:55:44;;;;;;;46.63;22.58;;;;;;;8.78;100.00;99550.38;5059414;28;20135;-61
2023/10/25 05:58:10;;;;;;;53.90;23.10;;;;;;;8.78;100.00;99547.81;5056586;28;20037;-62
2023/10/25 06:00:35;;;;;;;34.65;16.60;;;;;;;8.77;100.00;99548.69;5056992;28;20040;-62
2023/10/25 06:03:02;;;;;;;15.93;9.38;;;;;;;8.76;100.00;99544.41;5052666;28;20044;-62
2023/10/25 06:05:34;;;;;;;12.30;6.03;;;;;;;8.75;100.00;99537.56;5058870;28;20029;-62
2023/10/25 06:08:00;;;;;;;9.25;5.30;;;;;;;8.73;100.00;99529.00;5058299;28;20032;-62
2023/10/25 06:10:26;;;;;;;16.08;6.57;;;;;;;8.75;100.00;99522.13;5054874;28;20091;-62
2023/10/25 06:12:51;;;;;;;7.93;5.03;;;;;;;8.73;100.00;99520.41;5058728;28;20044;-62
2023/10/25 06:15:16;;;;;;;8.82;5.05;;;;;;;8.72;100.00;99518.75;5058557;28;20655;-62
2023/10/25 06:17:42;;;;;;;12.27;5.45;;;;;;;8.74;100.00;99515.25;5051705;28;20047;-62
2023/10/25 06:20:10;;;;;;;11.35;5.60;;;;;;;8.75;100.00;99518.69;5054945;28;20029;-63
2023/10/25 06:22:35;;;;;;;8.98;5.50;;;;;;;8.77;100.00;99515.19;5058465;28;20040;-62
2023/10/25 06:25:00;;;;;;;13.93;4.97;;;;;;;8.77;100.00;99514.34;5056937;28;20117;-62
2023/10/25 06:27:26;;;;;;;5.63;4.40;;;;;;;8.83;100.00;99506.47;5057998;28;20131;-62
2023/10/25 06:29:51;;;;;;;11.07;4.72;;;;;;;8.90;100.00;99500.31;5058526;28;20067;-62
2023/10/25 06:32:17;;;;;;;9.13;4.32;;;;;;;8.96;100.00;99490.69;5038883;28;20103;-62
2023/10/25 06:34:42;;;;;;;16.10;4.80;;;;;;;9.00;100.00;99483.75;5057128;28;20111;-63
2023/10/25 06:37:08;;;;;;;11.82;4.45;;;;;;;9.06;100.00;99484.47;5055242;28;20065;-62
2023/10/25 06:39:34;;;;;;;9.30;4.40;;;;;;;9.10;100.00;99478.38;5042882;28;20663;-62
2023/10/25 06:41:59;;;;;;;7.78;4.45;;;;;;;9.20;100.00;99476.41;5059370;28;20036;-62
2023/10/25 06:44:25;;;;;;;9.18;4.15;;;;;;;9.26;100.00;99475.44;5052721;28;20047;-62
2023/10/25 06:46:51;;;;;;;8.50;4.10;;;;;;;9.32;100.00;99465.81;5040246;28;20040;-62
2023/10/25 06:49:17;;;;;;;8.48;4.07;;;;;;;9.38;100.00;99457.94;5050981;28;20029;-62
2023/10/25 06:51:43;;;;;;;9.52;3.95;;;;;;;9.45;100.00;99448.31;5055302;28;20055;-62
2023/10/25 06:54:09;;;;;;;10.18;3.45;;;;;;;9.53;100.00;99452.38;5058537;28;20403;-62
2023/10/25 06:56:35;;;;;;;21.23;5.05;;;;;;;9.54;100.00;99446.34;5051792;28;20045;-62
2023/10/25 06:59:01;;;;;;;12.75;4.18;;;;;;;9.56;100.00;99444.56;5060782;28;20121;-62
2023/10/25 07:01:31;;;;;;;4.75;3.30;;;;;;;9.63;100.00;99433.25;5056939;28;20143;-62
2023/10/25 07:03:58;;;;;;;6.00;3.35;;;;;;;9.68;100.00;99433.97;5055684;28;20131;-62
2023/10/25 07:06:24;;;;;;;8.18;3.55;;;;;;;9.76;100.00;99427.78;5054809;28;20044;-62
2023/10/25 07:08:49;;;;;;;8.40;3.47;;;;;;;9.81;100.00;99418.19;5060417;28;20044;-62
2023/10/25 07:11:15;;;;;;;6.53;3.35;;;;;;;9.87;100.00;99418.00;5059238;28;20626;-62
2023/10/25 07:13:40;;;;;;;6.85;3.08;;;;;;;9.95;100.00;99414.34;5056883;28;20107;-62
2023/10/25 07:16:07;;;;;;;10.45;3.13;;;;;;;10.01;100.00;99406.44;5053684;28;20036;-62
2023/10/25 07:18:32;;;;;;;6.38;3.05;;;;;;;10.08;100.00;99399.34;5063325;28;20035;-62
2023/10/25 07:20:58;;;;;;;7.72;2.70;;;;;;;10.14;100.00;99400.03;5061565;28;20796;-62
2023/10/25 07:23:23;;;;;;;4.38;2.50;;;;;;;10.20;100.00;99388.69;5065243;28;20078;-62
2023/10/25 07:25:49;;;;;;;5.10;3.13;;;;;;;10.24;100.00;99391.13;5064397;28;20527;-62
2023/10/25 07:28:14;;;;;;;10.77;4.03;;;;;;;10.24;100.00;99374.78;5063901;28;20048;-62
2023/10/25 07:30:40;;;;;;;8.93;3.38;;;;;;;10.27;100.00;99369.53;5060680;28;20040;-62
2023/10/25 07:33:06;;;;;;;7.20;3.15;;;;;;;10.27;100.00;99360.97;5052477;28;20040;-62
2023/10/25 07:35:31;;;;;;;7.70;3.33;;;;;;;10.32;100.00;99357.34;5060188;28;20872;-65
2023/10/25 07:37:56;;;;;;;5.65;3.83;;;;;;;10.34;100.00;99354.69;5054523;28;20391;-62
2023/10/25 07:40:22;;;;;;;6.35;3.10;;;;;;;10.37;100.00;99349.44;5042443;28;20794;-62
2023/10/25 07:42:47;;;;;;;8.95;3.20;;;;;;;10.38;100.00;99351.16;5063318;28;20513;-62
2023/10/25 07:45:13;;;;;;;5.63;3.60;;;;;;;10.39;100.00;99347.66;5037641;28;20399;-62
2023/10/25 07:47:38;;;;;;;8.55;3.05;;;;;;;10.44;100.00;99350.97;5056958;28;20104;-62
2023/10/25 07:50:05;;;;;;;8.75;3.78;;;;;;;10.51;100.00;99347.28;5054868;28;20033;-62
2023/10/25 07:52:31;;;;;;;6.47;3.17;;;;;;;10.53;100.00;99337.75;5057327;28;20407;-62
2023/10/25 07:54:56;;;;;;;6.15;3.05;;;;;;;10.59;100.00;99332.41;5056561;28;20040;-62
2023/10/25 07:57:25;;;;;;;5.70;3.35;;;;;;;10.65;100.00;99327.88;5055284;28;20171;-62
2023/10/25 07:59:50;;;;;;;6.50;2.95;;;;;;;10.70;100.00;99327.75;5055041;28;20041;-62
2023/10/25 08:02:16;;;;;;;4.90;2.45;;;;;;;10.72;100.00;99326.78;5056732;28;20641;-63
2023/10/25 08:04:41;;;;;;;4.88;2.22;;;;;;;10.82;100.00;99321.31;5053141;28;20145;-62
2023/10/25 08:07:07;;;;;;;5.75;2.40;;;;;;;10.89;100.00;99325.41;5056943;28;20155;-63
2023/10/25 08:09:32;;;;;;;9.18;2.33;;;;;;;10.94;100.00;99321.78;5044553;28;20039;-64
2023/10/25 08:11:58;;;;;;;10.00;2.10;;;;;;;11.03;100.00;99308.56;5059376;28;20967;-64
2023/10/25 08:14:23;;;;;;;5.72;2.72;;;;;;;11.18;100.00;99312.38;5057231;28;20032;-65
2023/10/25 08:16:48;;;;;;;5.30;2.25;;;;;;;11.26;100.00;99318.97;5037585;28;20065;-64
2023/10/25 08:19:15;;;;;;;4.85;2.63;;;;;;;11.27;100.00;99299.13;5052370;28;20032;-64
2023/10/25 08:21:40;;;;;;;8.25;2.20;;;;;;;11.30;100.00;99293.84;5065399;28;20106;-64
2023/10/25 08:24:06;;;;;;;7.35;2.20;;;;;;;11.35;100.00;99284.16;5060337;28;20175;-64
2023/10/25 08:26:37;;;;;;;6.60;2.63;;;;;;;11.45;100.00;99283.00;5055849;28;20428;-64
2023/10/25 08:29:02;;;;;;;5.15;2.38;;;;;;;11.51;100.00;99269.84;5057080;28;20059;-63
2023/10/25 08:31:28;;;;;;;5.03;2.17;;;;;;;11.59;100.00;99269.53;5053669;28;20127;-64
2023/10/25 08:33:53;;;;;;;3.88;2.00;;;;;;;11.56;100.00;99262.75;5056357;28;20036;-63
2023/10/25 08:36:19;;;;;;;6.13;2.13;;;;;;;11.48;100.00;99257.00;5057997;28;20036;-65
2023/10/25 08:38:44;;;;;;;6.68;1.67;;;;;;;11.39;100.00;99266.81;5059778;28;20037;-65
2023/10/25 08:41:09;;;;;;;3.95;1.55;;;;;;;11.20;100.00;99264.84;5061009;28;20036;-65
2023/10/25 08:43:37;;;;;;;6.32;2.58;;;;;;;11.09;100.00;99261.81;5063505;28;20071;-65
2023/10/25 08:46:03;;;;;;;8.23;3.45;;;;;;;11.02;100.00;99249.13;5055735;28;20122;-65
2023/10/25 08:48:29;;;;;;;11.85;3.33;;;;;;;11.01;100.00;99250.03;5045559;28;20059;-65
2023/10/25 08:50:55;;;;;;;8.15;3.72;;;;;;;11.01;100.00;99253.44;5055165;28;20052;-65
2023/10/25 08:53:25;;;;;;;5.97;3.17;;;;;;;11.03;100.00;99254.25;5055560;28;20099;-65
2023/10/25 08:55:55;;;;;;;5.88;3.17;;;;;;;11.08;100.00;99256.66;5061937;28;20075;-64
2023/10/25 08:58:23;;;;;;;8.27;3.35;;;;;;;11.13;100.00;99257.34;5057546;28;20048;-63
2023/10/25 09:00:51;;;;;;;8.48;3.10;;;;;;;11.16;100.00;99245.16;5050258;28;20865;-65
2023/10/25 09:03:31;;;;;;;6.93;3.45;;;;;;;11.21;100.00;99235.53;5054804;28;20721;-64
2023/10/25 09:06:01;;;;;;;11.73;2.58;;;;;;;11.27;100.00;99239.63;5058309;28;20102;-64
2023/10/25 09:08:26;;;;;;;4.70;2.70;;;;;;;11.30;100.00;99224.84;5052979;28;20585;-65
2023/10/25 09:11:02;;;;;;;4.70;1.70;;;;;;;11.34;100.00;99221.22;5055271;28;20036;-64
2023/10/25 09:13:29;;;;;;;3.85;1.50;;;;;;;11.37;100.00;99216.88;5060689;28;20681;-65
2023/10/25 09:16:12;;;;;;;3.47;1.80;;;;;;;11.40;100.00;99209.81;5054637;28;20660;-64
2023/10/25 09:18:39;;;;;;;5.22;1.77;;;;;;;11.44;100.00;99206.25;5060233;28;20097;-64
2023/10/25 09:21:05;;;;;;;4.95;1.85;;;;;;;11.44;100.00;99190.75;5054472;28;20772;-64
2023/10/25 09:23:32;;;;;;;5.70;2.08;;;;;;;11.43;100.00;99195.91;5035140;28;20140;-64
2023/10/25 09:25:58;;;;;;;5.75;1.70;;;;;;;11.43;100.00;99195.91;5057196;28;20012;-64
2023/10/25 09:28:29;;;;;;;4.75;1.60;;;;;;;11.45;100.00;99191.59;5055417;28;20047;-64
2023/10/25 09:30:56;;;;;;;5.00;1.77;;;;;;;11.47;100.00;99192.38;5061676;28;20048;-64
2023/10/25 09:33:22;;;;;;;2.67;1.80;;;;;;;11.46;100.00;99191.50;5039846;28;20099;-65
2023/10/25 09:35:48;;;;;;;4.95;2.20;;;;;;;11.49;100.00;99182.78;5038379;28;20065;-65
2023/10/25 09:38:13;;;;;;;4.78;2.25;;;;;;;11.54;100.00;99188.66;5058978;28;20036;-64
2023/10/25 09:40:41;;;;;;;4.28;2.10;;;;;;;11.60;100.00;99185.84;5055094;28;20041;-65
2023/10/25 09:43:18;;;;;;;3.38;2.00;;;;;;;11.59;100.00;99184.16;5037598;28;20047;-64
2023/10/25 09:45:50;;;;;;;3.28;2.30;;;;;;;11.51;100.00;99184.44;5055993;28;20533;-64
2023/10/25 09:48:18;;;;;;;4.45;2.70;;;;;;;11.45;100.00;99176.91;5054926;28;20045;-67
2023/10/25 09:50:51;;;;;;;4.10;2.40;;;;;;;11.39;100.00;99169.34;5056941;28;20033;-67
2023/10/25 09:53:25;;;;;;;3.85;2.42;;;;;;;11.34;100.00;99172.09;5055507;28;20047;-67
2023/10/25 09:55:58;;;;;;;5.55;2.92;;;;;;;11.27;100.00;99172.38;5055000;28;20814;-68
2023/10/25 09:58:24;;;;;;;5.22;2.33;;;;;;;11.15;100.00;99165.06;5057025;28;20031;-68
2023/10/25 10:00:50;;;;;;;5.43;2.88;;;;;;;11.06;100.00;99149.88;5060420;28;20118;-67
2023/10/25 10:03:29;;;;;;;5.18;2.95;;;;;;;10.99;100.00;99145.81;5063522;28;20078;-68
2023/10/25 10:06:04;;;;;;;5.40;2.72;;;;;;;10.92;100.00;99144.38;5066909;28;20087;-67
2023/10/25 10:09:01;;;;;;;5.60;2.63;;;;;;;10.89;100.00;99145.28;5056129;28;20818;-67
2023/10/25 10:11:36;;;;;;;7.78;3.17;;;;;;;10.83;100.00;99140.38;5053902;28;20114;-67
2023/10/25 10:14:31;;;;;;;7.18;3.42;;;;;;;10.81;100.00;99131.81;5057429;28;20028;-67
2023/10/25 10:16:58;;;;;;;6.10;2.80;;;;;;;10.76;100.00;99131.13;5024449;28;20890;-67
2023/10/25 10:19:23;;;;;;;5.97;3.88;;;;;;;10.76;100.00;99124.22;5033203;28;20039;-66
2023/10/25 10:22:16;;;;;;;6.20;2.92;;;;;;;10.74;100.00;99117.44;5038778;28;20037;-67
2023/10/25 10:24:53;;;;;;;7.07;3.45;;;;;;;10.73;100.00;99114.00;5033713;28;20037;-63
2023/10/25 10:27:25;;;;;;;9.82;4.20;;;;;;;10.76;100.00;99100.13;5045875;28;20486;-64
2023/10/25 10:29:51;;;;;;;6.70;3.58;;;;;;;10.76;100.00;99103.56;5051592;28;20179;-66
2023/10/25 10:32:17;;;;;;;6.97;4.50;;;;;;;10.76;100.00;99095.81;5029384;28;20032;-64
2023/10/25 10:34:45;;;;;;;7.45;4.20;;;;;;;10.78;100.00;99094.00;5060790;28;20491;-65
2023/10/25 10:37:16;;;;;;;6.03;3.88;;;;;;;10.80;100.00;99088.78;5037511;28;20075;-65
2023/10/25 10:39:57;;;;;;;6.22;4.43;;;;;;;10.84;100.00;99082.59;5047581;28;20163;-65
2023/10/25 10:42:28;;;;;;;6.72;4.85;;;;;;;10.86;100.00;99077.38;5034646;28;20040;-64
2023/10/25 10:45:06;;;;;;;7.72;5.15;;;;;;;10.87;100.00;99073.88;5055657;28;20041;-65
2023/10/25 10:47:57;;;;;;;14.15;7.55;;;;;;;10.90;100.00;99071.19;5053079;28;20503;-64
2023/10/25 10:50:24;;;;;;;13.13;8.15;;;;;;;10.92;100.00;99062.47;5037566;28;20043;-65
2023/10/25 10:52:51;;;;;;;8.43;5.25;;;;;;;10.93;100.00;99053.81;5054889;28;20041;-66
2023/10/25 10:55:21;;;;;;;8.85;5.38;;;;;;;10.94;100.00;99047.75;5053150;28;20450;-69
2023/10/25 10:57:47;;;;;;;10.52;5.90;;;;;;;10.96;100.00;99040.78;5053963;28;20029;-69
2023/10/25 11:00:16;;;;;;;9.77;6.25;;;;;;;10.99;100.00;99035.50;5051553;28;20048;-70
2023/10/25 11:02:44;;;;;;;9.60;6.15;;;;;;;10.99;100.00;99030.31;5054658;28;20071;-70
2023/10/25 11:05:10;;;;;;;7.95;5.78;;;;;;;11.00;100.00;99020.84;5056558;28;20040;-69
2023/10/25 11:07:36;;;;;;;10.60;5.78;;;;;;;11.01;100.00;99028.50;5056386;28;20032;-70
2023/10/25 11:10:01;;;;;;;12.45;6.22;;;;;;;11.00;100.00;99021.69;5063814;28;20036;-70
2023/10/25 11:12:26;;;;;;;19.27;11.65;;;;;;;11.03;100.00;99018.97;5060283;28;20090;-69
2023/10/25 11:14:52;;;;;;;20.67;12.88;;;;;;;11.08;100.00;99016.22;5055555;28;20044;-70
2023/10/25 11:17:19;;;;;;;27.25;15.27;;;;;;;11.06;100.00;99005.94;5055124;28;20024;-68
2023/10/25 11:19:48;;;;;;;17.25;10.55;;;;;;;11.06;100.00;99002.50;5052473;28;20021;-69
2023/10/25 11:22:14;;;;;;;9.10;6.78;;;;;;;11.06;100.00;99003.34;5050843;28;20041;-68
2023/10/25 11:24:39;;;;;;;11.43;7.18;;;;;;;11.05;100.00;98999.06;5042035;28;20035;-69
2023/10/25 11:27:05;;;;;;;9.68;6.93;;;;;;;11.04;100.00;98992.22;5054594;28;20036;-69